sensor_id;sensor_type;location;lat;lon;timestamp;pressure;altitude;pressure_sealevel;temperature;humidity
77526;BME280;66627;29.424;-98.496;2023-09-08T00:01:09;98468.93;;;39.42;18.67
77526;BME280;66627;29.424;-98.496;2023-09-08T00:03:34;98468.73;;;39.08;18.77
77526;BME280;66627;29.424;-98.496;2023-09-08T00:05:59;98469.59;;;38.96;18.93
77526;BME280;66627;29.424;-98.496;2023-09-08T00:08:24;98467.37;;;39.00;18.57
77526;BME280;66627;29.424;-98.496;2023-09-08T00:10:49;98466.04;;;38.69;19.13
77526;BME280;66627;29.424;-98.496;2023-09-08T00:13:15;98469.34;;;39.01;19.34
77526;BME280;66627;29.424;-98.496;2023-09-08T00:15:40;98467.32;;;38.44;19.59
77526;BME280;66627;29.424;-98.496;2023-09-08T00:18:05;98466.43;;;38.46;19.43
77526;BME280;66627;29.424;-98.496;2023-09-08T00:22:55;98462.45;;;39.53;18.76
77526;BME280;66627;29.424;-98.496;2023-09-08T00:25:21;98461.27;;;39.48;18.97
77526;BME280;66627;29.424;-98.496;2023-09-08T00:27:46;98462.50;;;39.55;19.20
77526;BME280;66627;29.424;-98.496;2023-09-08T00:30:12;98462.65;;;38.65;19.44
77526;BME280;66627;29.424;-98.496;2023-09-08T00:32:37;98461.23;;;38.33;19.95
77526;BME280;66627;29.424;-98.496;2023-09-08T00:35:01;98456.54;;;38.14;20.05
77526;BME280;66627;29.424;-98.496;2023-09-08T00:37:27;98461.37;;;37.90;20.27
77526;BME280;66627;29.424;-98.496;2023-09-08T00:39:52;98460.99;;;38.39;19.99
77526;BME280;66627;29.424;-98.496;2023-09-08T00:42:17;98462.06;;;38.35;20.14
77526;BME280;66627;29.424;-98.496;2023-09-08T00:44:42;98468.58;;;38.14;20.50
77526;BME280;66627;29.424;-98.496;2023-09-08T00:47:08;98467.63;;;37.36;21.22
77526;BME280;66627;29.424;-98.496;2023-09-08T00:49:33;98470.42;;;37.32;20.95
77526;BME280;66627;29.424;-98.496;2023-09-08T00:51:58;98472.46;;;37.77;20.68
77526;BME280;66627;29.424;-98.496;2023-09-08T00:54:23;98473.99;;;38.23;20.40
77526;BME280;66627;29.424;-98.496;2023-09-08T00:56:49;98471.92;;;38.27;20.52
77526;BME280;66627;29.424;-98.496;2023-09-08T00:59:15;98471.12;;;37.77;21.53
77526;BME280;66627;29.424;-98.496;2023-09-08T01:01:39;98472.94;;;37.33;21.25
77526;BME280;66627;29.424;-98.496;2023-09-08T01:04:05;98474.24;;;37.92;21.29
77526;BME280;66627;29.424;-98.496;2023-09-08T01:06:29;98475.81;;;37.36;21.82
77526;BME280;66627;29.424;-98.496;2023-09-08T01:08:56;98477.64;;;38.31;21.54
77526;BME280;66627;29.424;-98.496;2023-09-08T01:11:20;98478.38;;;38.00;21.53
77526;BME280;66627;29.424;-98.496;2023-09-08T01:13:44;98479.72;;;38.19;21.19
77526;BME280;66627;29.424;-98.496;2023-09-08T01:16:09;98478.05;;;38.25;21.17
77526;BME280;66627;29.424;-98.496;2023-09-08T01:18:35;98474.57;;;38.93;21.00
77526;BME280;66627;29.424;-98.496;2023-09-08T01:21:17;98475.90;;;38.15;21.76
77526;BME280;66627;29.424;-98.496;2023-09-08T01:23:32;98478.40;;;38.15;21.39
77526;BME280;66627;29.424;-98.496;2023-09-08T01:25:55;98480.28;;;38.42;21.32
77526;BME280;66627;29.424;-98.496;2023-09-08T01:28:16;98478.64;;;37.86;21.70
77526;BME280;66627;29.424;-98.496;2023-09-08T01:30:41;98477.42;;;38.29;21.64
77526;BME280;66627;29.424;-98.496;2023-09-08T01:33:07;98479.20;;;37.37;22.05
77526;BME280;66627;29.424;-98.496;2023-09-08T01:35:32;98484.50;;;37.30;22.27
77526;BME280;66627;29.424;-98.496;2023-09-08T01:37:57;98488.69;;;37.71;22.07
77526;BME280;66627;29.424;-98.496;2023-09-08T01:40:22;98492.24;;;37.43;22.25
77526;BME280;66627;29.424;-98.496;2023-09-08T01:42:48;98491.97;;;37.26;22.43
77526;BME280;66627;29.424;-98.496;2023-09-08T01:45:13;98491.29;;;37.22;22.47
77526;BME280;66627;29.424;-98.496;2023-09-08T01:47:39;98493.87;;;37.14;22.68
77526;BME280;66627;29.424;-98.496;2023-09-08T01:50:05;98500.35;;;37.48;22.61
77526;BME280;66627;29.424;-98.496;2023-09-08T01:52:29;98500.85;;;36.93;22.79
77526;BME280;66627;29.424;-98.496;2023-09-08T01:54:55;98504.54;;;37.38;22.42
77526;BME280;66627;29.424;-98.496;2023-09-08T01:57:20;98502.86;;;37.36;22.74
77526;BME280;66627;29.424;-98.496;2023-09-08T01:59:45;98503.05;;;36.87;23.61
77526;BME280;66627;29.424;-98.496;2023-09-08T02:02:11;98506.32;;;36.94;23.16
77526;BME280;66627;29.424;-98.496;2023-09-08T02:04:36;98506.47;;;37.28;22.85
77526;BME280;66627;29.424;-98.496;2023-09-08T02:07:01;98510.92;;;36.95;22.92
77526;BME280;66627;29.424;-98.496;2023-09-08T02:09:31;98512.67;;;37.41;23.07
77526;BME280;66627;29.424;-98.496;2023-09-08T02:11:52;98517.76;;;37.20;23.08
77526;BME280;66627;29.424;-98.496;2023-09-08T02:14:17;98523.56;;;36.92;22.94
77526;BME280;66627;29.424;-98.496;2023-09-08T02:16:42;98523.41;;;37.05;23.01
77526;BME280;66627;29.424;-98.496;2023-09-08T02:19:07;98524.47;;;37.28;22.85
77526;BME280;66627;29.424;-98.496;2023-09-08T02:21:32;98526.03;;;37.22;23.28
77526;BME280;66627;29.424;-98.496;2023-09-08T02:23:58;98526.85;;;36.76;22.93
77526;BME280;66627;29.424;-98.496;2023-09-08T02:26:23;98527.13;;;36.47;23.14
77526;BME280;66627;29.424;-98.496;2023-09-08T02:28:48;98533.30;;;36.62;23.42
77526;BME280;66627;29.424;-98.496;2023-09-08T02:31:14;98531.80;;;37.16;23.14
77526;BME280;66627;29.424;-98.496;2023-09-08T02:33:39;98530.59;;;36.47;23.50
77526;BME280;66627;29.424;-98.496;2023-09-08T02:36:04;98534.89;;;36.89;23.10
77526;BME280;66627;29.424;-98.496;2023-09-08T02:38:28;98540.46;;;36.56;23.44
77526;BME280;66627;29.424;-98.496;2023-09-08T02:40:54;98544.98;;;36.73;23.69
77526;BME280;66627;29.424;-98.496;2023-09-08T02:43:19;98547.73;;;36.88;23.55
77526;BME280;66627;29.424;-98.496;2023-09-08T02:45:44;98550.18;;;36.66;24.36
77526;BME280;66627;29.424;-98.496;2023-09-08T02:48:09;98552.24;;;36.81;23.84
77526;BME280;66627;29.424;-98.496;2023-09-08T02:50:34;98554.38;;;36.55;23.63
77526;BME280;66627;29.424;-98.496;2023-09-08T02:53:00;98558.01;;;36.70;23.93
77526;BME280;66627;29.424;-98.496;2023-09-08T02:55:25;98560.13;;;36.21;24.20
77526;BME280;66627;29.424;-98.496;2023-09-08T02:57:50;98560.10;;;36.30;24.54
77526;BME280;66627;29.424;-98.496;2023-09-08T03:00:15;98561.28;;;35.83;25.12
77526;BME280;66627;29.424;-98.496;2023-09-08T03:02:40;98561.11;;;36.18;24.53
77526;BME280;66627;29.424;-98.496;2023-09-08T03:05:06;98569.68;;;35.88;24.90
77526;BME280;66627;29.424;-98.496;2023-09-08T03:07:31;98573.31;;;36.25;24.90
77526;BME280;66627;29.424;-98.496;2023-09-08T03:10:02;98570.41;;;35.75;24.84
77526;BME280;66627;29.424;-98.496;2023-09-08T03:12:30;98569.25;;;36.08;24.96
77526;BME280;66627;29.424;-98.496;2023-09-08T03:14:46;98570.09;;;35.87;25.33
77526;BME280;66627;29.424;-98.496;2023-09-08T03:17:12;98577.19;;;35.77;25.24
77526;BME280;66627;29.424;-98.496;2023-09-08T03:19:37;98583.33;;;35.22;25.81
77526;BME280;66627;29.424;-98.496;2023-09-08T03:22:03;98586.40;;;35.03;25.72
77526;BME280;66627;29.424;-98.496;2023-09-08T03:24:27;98591.91;;;34.83;26.53
77526;BME280;66627;29.424;-98.496;2023-09-08T03:26:53;98593.07;;;34.74;26.35
77526;BME280;66627;29.424;-98.496;2023-09-08T03:29:19;98597.81;;;34.62;26.37
77526;BME280;66627;29.424;-98.496;2023-09-08T03:31:43;98604.15;;;33.95;26.69
77526;BME280;66627;29.424;-98.496;2023-09-08T03:34:09;98608.37;;;33.58;26.79
77526;BME280;66627;29.424;-98.496;2023-09-08T03:36:34;98610.80;;;33.71;26.49
77526;BME280;66627;29.424;-98.496;2023-09-08T03:39:00;98616.53;;;33.86;26.12
77526;BME280;66627;29.424;-98.496;2023-09-08T03:41:25;98620.39;;;33.89;26.24
77526;BME280;66627;29.424;-98.496;2023-09-08T03:43:50;98622.32;;;33.74;25.79
77526;BME280;66627;29.424;-98.496;2023-09-08T03:46:15;98622.32;;;33.54;26.40
77526;BME280;66627;29.424;-98.496;2023-09-08T03:48:41;98629.11;;;32.72;27.13
77526;BME280;66627;29.424;-98.496;2023-09-08T03:51:06;98629.47;;;33.07;27.82
77526;BME280;66627;29.424;-98.496;2023-09-08T03:53:31;98633.31;;;32.94;28.03
77526;BME280;66627;29.424;-98.496;2023-09-08T03:55:57;98635.77;;;33.10;28.59
77526;BME280;66627;29.424;-98.496;2023-09-08T03:58:21;98637.01;;;33.02;28.81
77526;BME280;66627;29.424;-98.496;2023-09-08T04:00:46;98637.97;;;32.98;28.73
77526;BME280;66627;29.424;-98.496;2023-09-08T04:03:12;98635.41;;;33.61;28.53
77526;BME280;66627;29.424;-98.496;2023-09-08T04:05:37;98638.38;;;33.23;29.04
77526;BME280;66627;29.424;-98.496;2023-09-08T04:08:03;98637.91;;;32.85;29.92
77526;BME280;66627;29.424;-98.496;2023-09-08T04:10:27;98637.99;;;33.26;29.59
77526;BME280;66627;29.424;-98.496;2023-09-08T04:12:52;98637.71;;;32.90;30.00
77526;BME280;66627;29.424;-98.496;2023-09-08T04:15:19;98640.86;;;32.69;30.40
77526;BME280;66627;29.424;-98.496;2023-09-08T04:17:43;98642.57;;;32.54;30.66
77526;BME280;66627;29.424;-98.496;2023-09-08T04:20:08;98644.77;;;32.67;30.67
77526;BME280;66627;29.424;-98.496;2023-09-08T04:22:34;98652.44;;;33.28;30.33
77526;BME280;66627;29.424;-98.496;2023-09-08T04:25:00;98657.01;;;32.76;30.95
77526;BME280;66627;29.424;-98.496;2023-09-08T04:27:24;98663.10;;;33.17;30.54
77526;BME280;66627;29.424;-98.496;2023-09-08T04:29:50;98663.72;;;32.32;31.48
77526;BME280;66627;29.424;-98.496;2023-09-08T04:32:15;98668.98;;;32.96;31.11
77526;BME280;66627;29.424;-98.496;2023-09-08T04:34:41;98669.38;;;32.24;32.05
77526;BME280;66627;29.424;-98.496;2023-09-08T04:37:06;98670.63;;;32.13;31.88
77526;BME280;66627;29.424;-98.496;2023-09-08T04:39:32;98670.54;;;32.22;32.11
77526;BME280;66627;29.424;-98.496;2023-09-08T04:41:56;98673.67;;;32.79;31.99
77526;BME280;66627;29.424;-98.496;2023-09-08T04:44:21;98677.65;;;32.91;31.70
77526;BME280;66627;29.424;-98.496;2023-09-08T04:46:48;98683.20;;;31.81;32.42
77526;BME280;66627;29.424;-98.496;2023-09-08T04:49:12;98681.80;;;32.42;32.84
77526;BME280;66627;29.424;-98.496;2023-09-08T04:51:37;98684.08;;;32.55;32.25
77526;BME280;66627;29.424;-98.496;2023-09-08T04:54:03;98687.02;;;33.35;31.31
77526;BME280;66627;29.424;-98.496;2023-09-08T04:56:28;98691.36;;;32.65;31.91
77526;BME280;66627;29.424;-98.496;2023-09-08T04:58:54;98696.38;;;32.84;31.85
77526;BME280;66627;29.424;-98.496;2023-09-08T05:01:17;98706.42;;;33.24;31.97
77526;BME280;66627;29.424;-98.496;2023-09-08T05:03:43;98708.00;;;33.04;31.77
77526;BME280;66627;29.424;-98.496;2023-09-08T05:06:08;98711.75;;;31.94;33.60
77526;BME280;66627;29.424;-98.496;2023-09-08T05:08:33;98714.05;;;31.48;34.13
77526;BME280;66627;29.424;-98.496;2023-09-08T05:10:58;98718.50;;;32.01;33.55
77526;BME280;66627;29.424;-98.496;2023-09-08T05:13:25;98715.13;;;33.05;32.56
77526;BME280;66627;29.424;-98.496;2023-09-08T05:15:51;98721.93;;;32.22;33.64
77526;BME280;66627;29.424;-98.496;2023-09-08T05:18:15;98725.63;;;32.07;33.65
77526;BME280;66627;29.424;-98.496;2023-09-08T05:20:40;98730.09;;;31.85;34.48
77526;BME280;66627;29.424;-98.496;2023-09-08T05:23:05;98732.33;;;30.98;35.37
77526;BME280;66627;29.424;-98.496;2023-09-08T05:25:31;98737.63;;;31.22;35.10
77526;BME280;66627;29.424;-98.496;2023-09-08T05:27:56;98736.65;;;31.18;36.10
77526;BME280;66627;29.424;-98.496;2023-09-08T05:30:20;98737.60;;;31.36;35.68
77526;BME280;66627;29.424;-98.496;2023-09-08T05:32:46;98734.43;;;30.88;36.12
77526;BME280;66627;29.424;-98.496;2023-09-08T05:35:11;98731.99;;;30.60;36.95
77526;BME280;66627;29.424;-98.496;2023-09-08T05:37:36;98734.14;;;31.16;36.69
77526;BME280;66627;29.424;-98.496;2023-09-08T05:40:02;98737.85;;;31.11;36.87
77526;BME280;66627;29.424;-98.496;2023-09-08T05:42:26;98738.53;;;31.05;37.13
77526;BME280;66627;29.424;-98.496;2023-09-08T05:44:51;98737.20;;;31.15;37.42
77526;BME280;66627;29.424;-98.496;2023-09-08T05:47:16;98736.63;;;30.69;37.63
77526;BME280;66627;29.424;-98.496;2023-09-08T05:49:43;98732.39;;;30.90;37.13
77526;BME280;66627;29.424;-98.496;2023-09-08T05:52:07;98733.95;;;31.10;37.26
77526;BME280;66627;29.424;-98.496;2023-09-08T05:54:32;98739.60;;;30.96;37.48
77526;BME280;66627;29.424;-98.496;2023-09-08T05:56:58;98748.92;;;31.69;36.87
77526;BME280;66627;29.424;-98.496;2023-09-08T05:59:23;98747.30;;;30.99;37.59
77526;BME280;66627;29.424;-98.496;2023-09-08T06:01:49;98748.95;;;30.25;38.36
77526;BME280;66627;29.424;-98.496;2023-09-08T06:04:13;98745.85;;;30.79;37.62
77526;BME280;66627;29.424;-98.496;2023-09-08T06:06:38;98744.97;;;30.70;37.80
77526;BME280;66627;29.424;-98.496;2023-09-08T06:09:04;98749.55;;;31.44;36.79
77526;BME280;66627;29.424;-98.496;2023-09-08T06:11:29;98751.08;;;31.40;37.24
77526;BME280;66627;29.424;-98.496;2023-09-08T06:13:54;98753.16;;;31.45;37.57
77526;BME280;66627;29.424;-98.496;2023-09-08T06:16:19;98757.69;;;30.38;38.46
77526;BME280;66627;29.424;-98.496;2023-09-08T06:18:45;98754.84;;;30.35;38.56
77526;BME280;66627;29.424;-98.496;2023-09-08T06:21:14;98753.32;;;30.98;38.75
77526;BME280;66627;29.424;-98.496;2023-09-08T06:23:35;98754.52;;;31.91;37.50
77526;BME280;66627;29.424;-98.496;2023-09-08T06:26:00;98755.04;;;30.46;39.42
77526;BME280;66627;29.424;-98.496;2023-09-08T06:28:25;98750.53;;;29.83;40.35
77526;BME280;66627;29.424;-98.496;2023-09-08T06:30:50;98753.26;;;30.98;39.20
77526;BME280;66627;29.424;-98.496;2023-09-08T06:33:16;98758.12;;;30.37;40.27
77526;BME280;66627;29.424;-98.496;2023-09-08T06:35:40;98762.78;;;30.36;40.44
77526;BME280;66627;29.424;-98.496;2023-09-08T06:38:05;98768.07;;;29.90;40.87
77526;BME280;66627;29.424;-98.496;2023-09-08T06:40:31;98768.98;;;30.15;40.85
77526;BME280;66627;29.424;-98.496;2023-09-08T06:42:56;98769.27;;;30.81;39.97
77526;BME280;66627;29.424;-98.496;2023-09-08T06:45:22;98770.32;;;30.58;40.09
77526;BME280;66627;29.424;-98.496;2023-09-08T06:47:48;98770.10;;;30.88;40.18
77526;BME280;66627;29.424;-98.496;2023-09-08T06:50:18;98768.56;;;30.94;39.95
77526;BME280;66627;29.424;-98.496;2023-09-08T06:52:37;98767.83;;;30.34;41.19
77526;BME280;66627;29.424;-98.496;2023-09-08T06:55:03;98774.54;;;30.47;41.16
77526;BME280;66627;29.424;-98.496;2023-09-08T06:57:28;98781.68;;;30.04;41.93
77526;BME280;66627;29.424;-98.496;2023-09-08T06:59:53;98781.60;;;30.68;41.08
77526;BME280;66627;29.424;-98.496;2023-09-08T07:02:18;98776.77;;;30.98;40.67
77526;BME280;66627;29.424;-98.496;2023-09-08T07:04:43;98770.65;;;30.30;41.72
77526;BME280;66627;29.424;-98.496;2023-09-08T07:07:09;98772.67;;;30.66;41.33
77526;BME280;66627;29.424;-98.496;2023-09-08T07:09:34;98772.54;;;30.50;41.17
77526;BME280;66627;29.424;-98.496;2023-09-08T07:14:24;98770.96;;;30.74;41.25
77526;BME280;66627;29.424;-98.496;2023-09-08T07:16:49;98766.96;;;31.73;39.82
77526;BME280;66627;29.424;-98.496;2023-09-08T07:19:15;98766.17;;;31.61;39.98
77526;BME280;66627;29.424;-98.496;2023-09-08T07:21:40;98767.70;;;30.45;41.97
77526;BME280;66627;29.424;-98.496;2023-09-08T07:24:06;98768.85;;;30.79;41.47
77526;BME280;66627;29.424;-98.496;2023-09-08T07:26:30;98765.38;;;31.37;40.51
77526;BME280;66627;29.424;-98.496;2023-09-08T07:28:56;98767.25;;;31.45;40.37
77526;BME280;66627;29.424;-98.496;2023-09-08T07:31:21;98765.19;;;31.55;40.26
77526;BME280;66627;29.424;-98.496;2023-09-08T07:33:46;98767.56;;;31.82;39.55
77526;BME280;66627;29.424;-98.496;2023-09-08T07:36:11;98768.21;;;31.86;39.65
77526;BME280;66627;29.424;-98.496;2023-09-08T07:38:36;98764.11;;;30.40;41.87
77526;BME280;66627;29.424;-98.496;2023-09-08T07:41:02;98756.66;;;30.98;41.13
77526;BME280;66627;29.424;-98.496;2023-09-08T07:43:31;98754.10;;;31.21;40.62
77526;BME280;66627;29.424;-98.496;2023-09-08T07:45:52;98757.43;;;31.01;40.13
77526;BME280;66627;29.424;-98.496;2023-09-08T07:48:17;98757.33;;;29.74;41.77
77526;BME280;66627;29.424;-98.496;2023-09-08T07:50:47;98757.39;;;30.16;41.69
77526;BME280;66627;29.424;-98.496;2023-09-08T07:53:07;98752.98;;;29.79;41.89
77526;BME280;66627;29.424;-98.496;2023-09-08T07:55:32;98749.96;;;29.82;42.32
77526;BME280;66627;29.424;-98.496;2023-09-08T07:57:58;98748.36;;;29.10;43.00
77526;BME280;66627;29.424;-98.496;2023-09-08T08:00:23;98748.17;;;30.03;41.60
77526;BME280;66627;29.424;-98.496;2023-09-08T08:02:49;98750.60;;;29.53;42.76
77526;BME280;66627;29.424;-98.496;2023-09-08T08:05:13;98750.17;;;30.36;41.56
77526;BME280;66627;29.424;-98.496;2023-09-08T08:07:39;98748.29;;;30.27;41.33
77526;BME280;66627;29.424;-98.496;2023-09-08T08:10:04;98742.37;;;30.36;41.27
77526;BME280;66627;29.424;-98.496;2023-09-08T08:12:29;98740.72;;;29.81;42.45
77526;BME280;66627;29.424;-98.496;2023-09-08T08:14:56;98739.37;;;30.80;40.58
77526;BME280;66627;29.424;-98.496;2023-09-08T08:17:19;98744.17;;;31.22;40.78
77526;BME280;66627;29.424;-98.496;2023-09-08T08:19:47;98744.71;;;31.14;40.39
77526;BME280;66627;29.424;-98.496;2023-09-08T08:22:10;98743.16;;;31.32;40.19
77526;BME280;66627;29.424;-98.496;2023-09-08T08:24:35;98746.73;;;30.76;40.99
77526;BME280;66627;29.424;-98.496;2023-09-08T08:27:00;98747.03;;;30.59;41.20
77526;BME280;66627;29.424;-98.496;2023-09-08T08:29:25;98749.08;;;29.75;42.60
77526;BME280;66627;29.424;-98.496;2023-09-08T08:31:55;98743.55;;;30.16;42.00
77526;BME280;66627;29.424;-98.496;2023-09-08T08:34:17;98745.94;;;28.69;44.77
77526;BME280;66627;29.424;-98.496;2023-09-08T08:36:41;98744.03;;;28.83;44.27
77526;BME280;66627;29.424;-98.496;2023-09-08T08:39:08;98745.02;;;29.47;43.25
77526;BME280;66627;29.424;-98.496;2023-09-08T08:41:32;98745.44;;;29.86;42.68
77526;BME280;66627;29.424;-98.496;2023-09-08T08:43:57;98742.10;;;30.43;42.25
77526;BME280;66627;29.424;-98.496;2023-09-08T08:46:22;98743.52;;;30.05;42.82
77526;BME280;66627;29.424;-98.496;2023-09-08T08:48:47;98741.78;;;29.48;43.78
77526;BME280;66627;29.424;-98.496;2023-09-08T08:51:22;98743.94;;;30.30;42.44
77526;BME280;66627;29.424;-98.496;2023-09-08T08:53:39;98748.79;;;30.79;41.81
77526;BME280;66627;29.424;-98.496;2023-09-08T08:56:05;98745.41;;;30.44;41.87
77526;BME280;66627;29.424;-98.496;2023-09-08T08:58:29;98735.29;;;29.99;42.29
77526;BME280;66627;29.424;-98.496;2023-09-08T09:00:54;98732.38;;;29.89;42.80
77526;BME280;66627;29.424;-98.496;2023-09-08T09:03:18;98732.25;;;30.44;42.33
77526;BME280;66627;29.424;-98.496;2023-09-08T09:05:44;98732.12;;;30.48;42.15
77526;BME280;66627;29.424;-98.496;2023-09-08T09:08:09;98730.02;;;29.78;42.49
77526;BME280;66627;29.424;-98.496;2023-09-08T09:10:34;98731.57;;;30.77;41.73
77526;BME280;66627;29.424;-98.496;2023-09-08T09:13:00;98735.84;;;29.42;43.23
77526;BME280;66627;29.424;-98.496;2023-09-08T09:15:29;98746.17;;;30.12;42.92
77526;BME280;66627;29.424;-98.496;2023-09-08T09:20:18;98750.16;;;30.31;42.27
77526;BME280;66627;29.424;-98.496;2023-09-08T09:22:39;98750.34;;;30.22;42.66
77526;BME280;66627;29.424;-98.496;2023-09-08T09:25:04;98752.73;;;29.37;43.71
77526;BME280;66627;29.424;-98.496;2023-09-08T09:27:31;98758.00;;;29.84;43.43
77526;BME280;66627;29.424;-98.496;2023-09-08T09:29:54;98758.24;;;29.44;44.05
77526;BME280;66627;29.424;-98.496;2023-09-08T09:32:24;98754.18;;;28.99;44.99
77526;BME280;66627;29.424;-98.496;2023-09-08T09:34:50;98756.53;;;29.83;43.53
77526;BME280;66627;29.424;-98.496;2023-09-08T09:37:10;98755.28;;;29.27;44.36
77526;BME280;66627;29.424;-98.496;2023-09-08T09:39:35;98754.21;;;27.96;46.77
77526;BME280;66627;29.424;-98.496;2023-09-08T09:42:00;98750.39;;;28.33;46.62
77526;BME280;66627;29.424;-98.496;2023-09-08T09:44:28;98752.25;;;28.41;46.26
77526;BME280;66627;29.424;-98.496;2023-09-08T09:46:53;98750.68;;;28.25;46.91
77526;BME280;66627;29.424;-98.496;2023-09-08T09:49:17;98754.20;;;29.52;44.63
77526;BME280;66627;29.424;-98.496;2023-09-08T09:51:47;98759.24;;;29.19;45.29
77526;BME280;66627;29.424;-98.496;2023-09-08T09:54:06;98761.44;;;29.08;45.60
77526;BME280;66627;29.424;-98.496;2023-09-08T09:56:31;98760.54;;;28.06;46.93
77526;BME280;66627;29.424;-98.496;2023-09-08T09:58:56;98761.17;;;29.23;45.43
77526;BME280;66627;29.424;-98.496;2023-09-08T10:01:24;98759.59;;;29.23;45.47
77526;BME280;66627;29.424;-98.496;2023-09-08T10:03:48;98761.30;;;28.72;46.34
77526;BME280;66627;29.424;-98.496;2023-09-08T10:06:13;98761.82;;;28.80;46.28
77526;BME280;66627;29.424;-98.496;2023-09-08T10:08:39;98759.99;;;29.22;45.58
77526;BME280;66627;29.424;-98.496;2023-09-08T10:11:06;98760.55;;;28.86;45.64
77526;BME280;66627;29.424;-98.496;2023-09-08T10:13:28;98760.25;;;28.64;46.02
77526;BME280;66627;29.424;-98.496;2023-09-08T10:15:57;98761.82;;;28.03;47.11
77526;BME280;66627;29.424;-98.496;2023-09-08T10:18:19;98764.32;;;28.06;47.53
77526;BME280;66627;29.424;-98.496;2023-09-08T10:20:45;98764.16;;;28.92;46.32
77526;BME280;66627;29.424;-98.496;2023-09-08T10:23:15;98769.17;;;29.34;45.52
77526;BME280;66627;29.424;-98.496;2023-09-08T10:25:37;98768.79;;;29.72;44.42
77526;BME280;66627;29.424;-98.496;2023-09-08T10:27:59;98771.08;;;29.73;44.38
77526;BME280;66627;29.424;-98.496;2023-09-08T10:30:24;98772.75;;;29.82;44.60
77526;BME280;66627;29.424;-98.496;2023-09-08T10:32:50;98772.60;;;29.39;44.78
77526;BME280;66627;29.424;-98.496;2023-09-08T10:35:16;98772.96;;;29.61;44.07
77526;BME280;66627;29.424;-98.496;2023-09-08T10:37:41;98773.45;;;29.64;44.27
77526;BME280;66627;29.424;-98.496;2023-09-08T10:42:31;98772.71;;;29.78;43.71
77526;BME280;66627;29.424;-98.496;2023-09-08T10:44:59;98776.24;;;29.25;44.15
77526;BME280;66627;29.424;-98.496;2023-09-08T10:47:23;98779.89;;;29.69;44.68
77526;BME280;66627;29.424;-98.496;2023-09-08T10:49:47;98781.12;;;29.77;44.39
77526;BME280;66627;29.424;-98.496;2023-09-08T10:52:13;98783.79;;;29.87;44.10
77526;BME280;66627;29.424;-98.496;2023-09-08T10:54:42;98786.46;;;29.76;44.17
77526;BME280;66627;29.424;-98.496;2023-09-08T10:57:07;98789.01;;;28.99;45.46
77526;BME280;66627;29.424;-98.496;2023-09-08T10:59:29;98790.36;;;28.46;46.14
77526;BME280;66627;29.424;-98.496;2023-09-08T11:01:56;98791.70;;;28.15;47.24
77526;BME280;66627;29.424;-98.496;2023-09-08T11:04:18;98795.42;;;28.40;46.94
77526;BME280;66627;29.424;-98.496;2023-09-08T11:06:44;98801.81;;;28.93;45.91
77526;BME280;66627;29.424;-98.496;2023-09-08T11:09:09;98802.45;;;29.17;45.44
77526;BME280;66627;29.424;-98.496;2023-09-08T11:11:39;98806.69;;;29.58;44.66
77526;BME280;66627;29.424;-98.496;2023-09-08T11:14:00;98803.84;;;28.22;47.14
77526;BME280;66627;29.424;-98.496;2023-09-08T11:16:24;98803.52;;;28.63;46.49
77526;BME280;66627;29.424;-98.496;2023-09-08T11:18:51;98800.34;;;28.94;45.43
77526;BME280;66627;29.424;-98.496;2023-09-08T11:21:15;98805.21;;;27.65;48.33
77526;BME280;66627;29.424;-98.496;2023-09-08T11:23:40;98795.12;;;28.77;46.32
77526;BME280;66627;29.424;-98.496;2023-09-08T11:26:06;98791.46;;;29.19;45.48
77526;BME280;66627;29.424;-98.496;2023-09-08T11:28:31;98794.26;;;28.82;46.22
77526;BME280;66627;29.424;-98.496;2023-09-08T11:30:57;98787.56;;;28.90;46.17
77526;BME280;66627;29.424;-98.496;2023-09-08T11:33:22;98787.31;;;29.12;45.78
77526;BME280;66627;29.424;-98.496;2023-09-08T11:35:46;98790.69;;;28.98;45.94
77526;BME280;66627;29.424;-98.496;2023-09-08T11:38:11;98792.29;;;29.43;45.02
77526;BME280;66627;29.424;-98.496;2023-09-08T11:40:36;98788.43;;;29.10;45.71
77526;BME280;66627;29.424;-98.496;2023-09-08T11:43:01;98792.49;;;27.55;48.60
77526;BME280;66627;29.424;-98.496;2023-09-08T11:45:26;98792.12;;;27.38;49.23
77526;BME280;66627;29.424;-98.496;2023-09-08T11:47:53;98783.56;;;28.25;47.61
77526;BME280;66627;29.424;-98.496;2023-09-08T11:50:19;98788.54;;;28.74;46.43
77526;BME280;66627;29.424;-98.496;2023-09-08T11:52:44;98789.78;;;27.74;49.06
77526;BME280;66627;29.424;-98.496;2023-09-08T11:55:08;98780.73;;;28.39;47.20
77526;BME280;66627;29.424;-98.496;2023-09-08T11:57:33;98780.75;;;28.90;46.31
77526;BME280;66627;29.424;-98.496;2023-09-08T11:59:58;98788.00;;;28.93;46.53
77526;BME280;66627;29.424;-98.496;2023-09-08T12:02:23;98790.80;;;28.08;47.74
77526;BME280;66627;29.424;-98.496;2023-09-08T12:04:48;98795.76;;;28.06;47.57
77526;BME280;66627;29.424;-98.496;2023-09-08T12:07:13;98801.59;;;28.77;46.36
77526;BME280;66627;29.424;-98.496;2023-09-08T12:09:38;98802.88;;;28.33;47.45
77526;BME280;66627;29.424;-98.496;2023-09-08T12:12:12;98809.33;;;28.91;46.23
77526;BME280;66627;29.424;-98.496;2023-09-08T12:14:29;98808.42;;;29.08;45.78
77526;BME280;66627;29.424;-98.496;2023-09-08T12:19:28;98819.63;;;28.82;45.78
77526;BME280;66627;29.424;-98.496;2023-09-08T12:21:54;98824.37;;;28.49;47.03
77526;BME280;66627;29.424;-98.496;2023-09-08T12:24:09;98827.35;;;28.72;46.74
77526;BME280;66627;29.424;-98.496;2023-09-08T12:26:37;98827.85;;;28.65;46.97
77526;BME280;66627;29.424;-98.496;2023-09-08T12:29:00;98831.25;;;28.58;47.18
77526;BME280;66627;29.424;-98.496;2023-09-08T12:31:26;98835.56;;;28.58;46.82
77526;BME280;66627;29.424;-98.496;2023-09-08T12:33:51;98837.81;;;29.16;46.20
77526;BME280;66627;29.424;-98.496;2023-09-08T12:36:17;98839.04;;;29.13;46.12
77526;BME280;66627;29.424;-98.496;2023-09-08T12:38:41;98835.61;;;29.18;46.15
77526;BME280;66627;29.424;-98.496;2023-09-08T12:41:06;98835.44;;;28.44;47.48